Time;durP1;ratioP1;P1;durP2;ratioP2;P2;SDS_P1;SDS_P2;PMS_P1;PMS_P2;Temp;Humidity;BMP_temperature;BMP_pressure;BME280_temperature;BME280_humidity;BME280_pressure;Samples;Min_cycle;Max_cycle;Signal;HPM_P1;HPM_P2
2022/01/19 00:01:57;;;;;;;1.83;1.13;;;6.80;99.90;;;;;;4935559;29;20227;-62
2022/01/19 00:04:25;;;;;;;1.20;1.10;;;6.90;99.90;;;;;;4935246;29;20204;-63
2022/01/19 00:06:53;;;;;;;1.58;1.48;;;6.90;99.90;;;;;;4953742;29;20297;-62
2022/01/19 00:09:23;;;;;;;1.80;1.27;;;6.90;99.90;;;;;;4946553;29;20294;-63
2022/01/19 00:11:52;;;;;;;1.88;1.17;;;6.90;99.90;;;;;;4934362;29;20642;-63
2022/01/19 00:14:20;;;;;;;2.20;1.10;;;6.80;99.90;;;;;;4929130;29;20724;-63
2022/01/19 00:16:48;;;;;;;1.20;1.10;;;6.60;99.90;;;;;;4935228;29;20231;-63
2022/01/19 00:19:16;;;;;;;1.42;1.33;;;6.50;99.90;;;;;;4934965;29;20232;-63
2022/01/19 00:21:44;;;;;;;1.40;1.30;;;6.50;99.90;;;;;;4935400;29;20291;-63
2022/01/19 00:24:12;;;;;;;1.95;1.50;;;6.50;99.90;;;;;;4934006;29;20338;-63
2022/01/19 00:26:40;;;;;;;1.38;1.27;;;6.50;99.90;;;;;;4934950;29;20307;-62
2022/01/19 00:29:09;;;;;;;1.38;1.20;;;6.40;99.90;;;;;;4934726;29;20767;-63
2022/01/19 00:31:37;;;;;;;1.17;1.08;;;6.40;99.90;;;;;;4934834;29;20251;-62
2022/01/19 00:34:05;;;;;;;1.25;1.15;;;6.30;99.90;;;;;;4934489;29;20621;-63
2022/01/19 00:36:33;;;;;;;1.48;1.38;;;6.20;99.90;;;;;;4934847;29;20208;-63
2022/01/19 00:39:00;;;;;;;2.00;1.38;;;6.30;99.90;;;;;;4934662;29;20335;-63
2022/01/19 00:41:28;;;;;;;1.60;1.50;;;6.10;99.90;;;;;;4934861;29;20212;-62
2022/01/19 00:43:56;;;;;;;1.30;1.20;;;6.10;99.90;;;;;;4934375;29;20688;-63
2022/01/19 00:46:26;;;;;;;1.63;1.50;;;6.00;99.90;;;;;;4934782;29;20239;-62
2022/01/19 00:48:54;;;;;;;1.55;1.20;;;6.00;99.90;;;;;;4934759;29;20220;-63
2022/01/19 00:51:21;;;;;;;2.83;1.60;;;5.90;99.90;;;;;;4934698;29;20251;-64
2022/01/19 00:53:49;;;;;;;4.50;1.88;;;5.90;99.90;;;;;;4934346;29;20294;-64
2022/01/19 00:56:17;;;;;;;1.27;1.17;;;6.20;99.90;;;;;;4934531;29;20282;-63
2022/01/19 00:58:45;;;;;;;1.52;1.33;;;6.10;99.90;;;;;;4934176;29;20259;-63
2022/01/19 01:01:13;;;;;;;1.55;1.45;;;6.00;99.90;;;;;;4934514;29;20208;-64
2022/01/19 01:03:43;;;;;;;3.55;1.73;;;5.90;99.90;;;;;;4932852;29;20204;-63
2022/01/19 01:06:11;;;;;;;1.65;1.55;;;5.80;99.90;;;;;;4934523;29;20207;-63
2022/01/19 01:08:39;;;;;;;1.92;1.75;;;5.70;99.90;;;;;;4934473;29;20319;-64
2022/01/19 01:11:07;;;;;;;6.07;2.08;;;5.60;99.90;;;;;;4934151;29;20299;-64
2022/01/19 01:16:31;;;;;;;2.15;1.52;;;5.90;99.90;;;;;;4931192;29;20246;-64
2022/01/19 01:19:02;;;;;;;2.03;1.42;;;6.00;99.90;;;;;;4934284;29;20246;-63
2022/01/19 01:21:30;;;;;;;1.80;1.70;;;6.00;99.90;;;;;;4952567;29;20204;-65
2022/01/19 01:23:58;;;;;;;1.73;1.58;;;5.90;99.90;;;;;;4952342;29;20368;-62
2022/01/19 01:26:26;;;;;;;3.17;1.95;;;5.70;99.90;;;;;;4940786;28;20209;-63
2022/01/19 01:28:54;;;;;;;1.50;1.40;;;5.70;99.90;;;;;;4926723;29;20309;-63
2022/01/19 01:31:22;;;;;;;3.92;1.70;;;5.70;99.90;;;;;;4933951;29;20302;-64
2022/01/19 01:33:50;;;;;;;1.60;1.50;;;5.80;99.90;;;;;;4933759;29;20294;-64
2022/01/19 01:36:19;;;;;;;2.70;1.80;;;5.80;99.90;;;;;;4938028;29;20239;-64
2022/01/19 01:38:47;;;;;;;1.92;1.83;;;5.80;99.90;;;;;;4937879;29;20712;-64
2022/01/19 01:41:15;;;;;;;1.60;1.50;;;5.90;99.90;;;;;;4938025;29;20226;-63
2022/01/19 01:43:45;;;;;;;1.98;1.80;;;6.10;99.90;;;;;;4937769;29;20721;-63
2022/01/19 01:46:25;;;;;;;1.52;1.38;;;6.20;99.90;;;;;;4938030;29;20211;-64
2022/01/19 01:48:53;;;;;;;1.70;1.60;;;6.30;99.90;;;;;;4937940;29;20228;-63
2022/01/19 01:54:08;;;;;;;1.50;1.40;;;6.30;99.90;;;;;;4937503;29;20259;-64
2022/01/19 01:56:36;;;;;;;1.88;1.77;;;6.20;99.90;;;;;;4937866;29;20275;-64
2022/01/19 01:59:04;;;;;;;1.80;1.70;;;6.30;99.90;;;;;;4937413;29;20264;-63
2022/01/19 02:01:32;;;;;;;1.75;1.60;;;6.30;99.90;;;;;;4951927;29;20275;-63
2022/01/19 02:04:00;;;;;;;1.90;1.80;;;6.10;99.90;;;;;;4955636;28;20227;-64
2022/01/19 02:06:39;;;;;;;1.90;1.80;;;5.90;99.90;;;;;;4955969;29;20267;-64
2022/01/19 02:09:11;;;;;;;1.50;1.35;;;5.90;99.90;;;;;;4955963;29;20243;-65
2022/01/19 02:23:02;;;;;;;2.08;1.67;;;6.50;99.90;;;;;;4934172;29;20212;-64
2022/01/19 02:25:36;;;;;;;1.98;1.60;;;6.40;99.90;;;;;;4937180;29;20311;-64
2022/01/19 02:36:48;;;;;;;1.55;1.40;;;6.70;99.90;;;;;;4936983;29;20294;-63
2022/01/19 02:42:06;;;;;;;2.15;1.40;;;6.80;99.90;;;;;;4936960;29;20283;-64
2022/01/19 02:50:01;;;;;;;2.38;1.65;;;6.40;99.90;;;;;;4936941;29;20708;-63
2022/01/19 02:52:30;;;;;;;3.08;1.85;;;6.20;99.90;;;;;;4936574;29;20700;-63
2022/01/19 02:54:58;;;;;;;1.70;1.60;;;6.20;99.90;;;;;;4936550;29;20239;-64
2022/01/19 02:57:26;;;;;;;4.22;1.98;;;6.40;99.90;;;;;;4936680;29;20323;-63
2022/01/19 03:11:03;;;;;;;2.65;1.85;;;6.00;99.90;;;;;;4936550;29;20235;-63
2022/01/19 03:13:31;;;;;;;1.63;1.52;;;6.00;99.90;;;;;;4935911;29;20251;-63
2022/01/19 03:15:58;;;;;;;2.88;1.60;;;6.20;99.90;;;;;;4936276;29;20235;-63
2022/01/19 03:18:27;;;;;;;1.70;1.60;;;6.30;99.90;;;;;;4936335;29;20224;-63
2022/01/19 03:20:54;;;;;;;3.85;2.20;;;6.10;99.90;;;;;;4936306;29;20666;-63
2022/01/19 03:23:24;;;;;;;2.15;1.90;;;6.20;99.90;;;;;;4935986;29;20208;-63
2022/01/19 03:25:54;;;;;;;2.53;2.33;;;6.10;99.90;;;;;;4935826;29;20291;-64
2022/01/19 03:28:22;;;;;;;1.40;1.30;;;6.10;99.90;;;;;;4935888;29;20727;-63
2022/01/19 03:30:49;;;;;;;2.20;1.98;;;6.10;99.90;;;;;;4935973;29;20235;-63
2022/01/19 03:33:18;;;;;;;2.30;2.10;;;6.20;99.90;;;;;;4935613;29;20311;-64
2022/01/19 03:35:46;;;;;;;1.63;1.52;;;6.00;99.90;;;;;;4935984;29;20613;-63
2022/01/19 03:38:14;;;;;;;2.08;1.98;;;6.10;99.90;;;;;;4935731;29;20271;-62
2022/01/19 03:40:44;;;;;;;2.20;2.00;;;6.20;99.90;;;;;;4935682;29;20235;-64
2022/01/19 03:43:12;;;;;;;1.83;1.73;;;6.00;99.90;;;;;;4935755;29;20247;-63
2022/01/19 03:45:49;;;;;;;2.25;1.77;;;5.90;99.90;;;;;;4935888;29;20240;-63
2022/01/19 03:48:31;;;;;;;2.40;2.20;;;5.70;99.90;;;;;;4935625;29;20263;-64
2022/01/19 03:50:59;;;;;;;1.95;1.85;;;5.90;99.90;;;;;;4935805;29;20308;-63
2022/01/19 03:53:27;;;;;;;1.50;1.40;;;5.90;99.90;;;;;;4935441;29;20249;-63
2022/01/19 03:55:57;;;;;;;3.00;2.00;;;6.10;99.90;;;;;;4935566;29;20308;-64
2022/01/19 03:58:25;;;;;;;1.88;1.77;;;6.20;99.90;;;;;;4935806;29;20267;-63
2022/01/19 04:00:56;;;;;;;3.90;1.98;;;6.30;99.90;;;;;;4935255;29;20290;-63
2022/01/19 04:03:35;;;;;;;1.88;1.58;;;6.50;99.90;;;;;;4928928;29;20850;-63
2022/01/19 04:06:15;;;;;;;2.28;1.80;;;6.50;99.90;;;;;;4930776;29;20235;-64
2022/01/19 04:08:42;;;;;;;2.30;1.88;;;6.50;99.90;;;;;;4935506;29;20322;-64
2022/01/19 04:11:15;;;;;;;1.98;1.88;;;6.50;99.90;;;;;;4935416;29;20699;-63
2022/01/19 04:13:59;;;;;;;1.77;1.60;;;6.30;99.90;;;;;;4935097;29;20319;-62
2022/01/19 04:16:27;;;;;;;2.05;1.85;;;6.40;99.90;;;;;;4935409;29;20653;-63
2022/01/19 04:19:06;;;;;;;1.70;1.60;;;6.40;99.90;;;;;;4935216;29;20220;-63
2022/01/19 04:21:34;;;;;;;2.08;1.92;;;6.40;99.90;;;;;;4934956;29;20279;-63
2022/01/19 04:24:02;;;;;;;4.82;2.38;;;6.20;99.90;;;;;;4935108;29;20733;-63
2022/01/19 04:26:32;;;;;;;2.22;1.60;;;6.20;99.90;;;;;;4935057;29;20286;-63
2022/01/19 04:29:00;;;;;;;2.70;2.20;;;5.90;99.90;;;;;;4934937;29;20258;-64
2022/01/19 04:31:27;;;;;;;1.95;1.58;;;5.70;99.90;;;;;;4935734;29;20232;-64
2022/01/19 04:34:00;;;;;;;2.30;2.10;;;5.60;99.90;;;;;;4936515;29;20255;-63
2022/01/19 04:36:33;;;;;;;2.80;2.60;;;5.50;99.90;;;;;;4935032;29;20294;-64
2022/01/19 04:39:24;;;;;;;2.33;2.10;;;5.40;99.90;;;;;;4934849;29;20267;-63
2022/01/19 04:44:56;;;;;;;2.92;2.50;;;5.70;99.90;;;;;;4934835;29;20236;-64
2022/01/19 05:01:44;;;;;;;3.42;3.22;;;5.30;99.90;;;;;;4934419;29;20669;-64
2022/01/19 05:04:25;;;;;;;3.55;3.25;;;5.20;99.90;;;;;;4934390;29;20207;-64
2022/01/19 05:07:06;;;;;;;4.32;4.03;;;5.30;99.90;;;;;;4934506;29;20555;-64
2022/01/19 05:15:05;;;;;;;3.60;3.30;;;5.70;99.90;;;;;;4949858;29;20235;-63
2022/01/19 05:17:38;;;;;;;3.00;2.72;;;5.70;99.90;;;;;;4934012;29;20251;-64
2022/01/19 05:20:09;;;;;;;3.28;3.08;;;5.90;99.90;;;;;;4931147;29;20235;-64
2022/01/19 05:22:37;;;;;;;3.38;3.08;;;6.00;99.90;;;;;;4933903;29;20231;-62
2022/01/19 05:25:05;;;;;;;2.67;2.47;;;5.90;99.90;;;;;;4933761;29;20214;-62
2022/01/19 05:27:33;;;;;;;3.53;3.22;;;6.00;99.90;;;;;;4931602;29;20378;-63
2022/01/19 05:30:03;;;;;;;3.10;2.90;;;6.00;99.90;;;;;;4936807;29;20286;-63
2022/01/19 05:32:31;;;;;;;3.03;2.83;;;6.10;99.90;;;;;;4936330;29;20224;-63
2022/01/19 05:34:59;;;;;;;3.20;3.00;;;6.10;99.90;;;;;;4937980;29;20776;-63
2022/01/19 05:37:26;;;;;;;3.95;3.65;;;6.20;99.90;;;;;;4931250;29;20335;-65
2022/01/19 05:39:54;;;;;;;3.67;3.10;;;6.10;99.90;;;;;;4924128;29;20210;-65
2022/01/19 05:42:23;;;;;;;5.15;3.75;;;6.00;99.90;;;;;;4928553;29;20639;-65
2022/01/19 05:44:50;;;;;;;4.93;3.55;;;5.50;99.90;;;;;;4932938;29;20291;-65
2022/01/19 05:47:20;;;;;;;3.33;3.10;;;5.30;99.90;;;;;;4933075;29;20231;-64
2022/01/19 05:49:47;;;;;;;4.38;3.75;;;5.00;99.90;;;;;;4936305;29;20307;-65
2022/01/19 05:52:15;;;;;;;3.85;3.53;;;4.90;99.90;;;;;;4939397;29;20231;-65
2022/01/19 05:54:43;;;;;;;4.55;4.15;;;4.80;99.90;;;;;;4941654;29;20260;-65
2022/01/19 05:57:12;;;;;;;4.15;3.85;;;4.80;99.90;;;;;;4941903;29;20203;-65
2022/01/19 05:59:40;;;;;;;4.07;3.78;;;4.70;99.90;;;;;;4928723;29;20211;-65
2022/01/19 06:02:07;;;;;;;5.32;4.82;;;4.50;99.90;;;;;;4940086;29;20221;-65
2022/01/19 06:04:37;;;;;;;5.50;5.00;;;4.40;99.90;;;;;;4939572;29;20632;-64
2022/01/19 06:07:05;;;;;;;6.32;5.10;;;4.30;99.90;;;;;;4945989;29;20233;-64
2022/01/19 06:09:37;;;;;;;6.85;6.25;;;4.20;99.90;;;;;;4928862;29;20298;-65
2022/01/19 06:12:08;;;;;;;5.50;5.10;;;4.20;99.90;;;;;;4940453;29;20207;-65
2022/01/19 06:14:37;;;;;;;5.35;4.95;;;4.10;99.90;;;;;;4937845;29;20323;-65
2022/01/19 06:17:07;;;;;;;6.10;5.70;;;4.20;99.90;;;;;;4941560;29;20715;-64
2022/01/19 06:19:35;;;;;;;5.63;5.13;;;4.10;99.90;;;;;;4944483;29;20246;-64
2022/01/19 06:22:05;;;;;;;7.32;4.82;;;4.10;99.90;;;;;;4942099;28;20203;-64
2022/01/19 06:24:33;;;;;;;5.63;5.13;;;4.00;99.90;;;;;;4946327;29;20204;-64
2022/01/19 06:27:01;;;;;;;5.13;4.72;;;4.00;99.90;;;;;;4945284;29;20271;-66
2022/01/19 06:29:28;;;;;;;6.45;5.95;;;3.90;99.90;;;;;;4932621;29;20239;-64
2022/01/19 06:31:56;;;;;;;5.75;5.22;;;3.80;99.90;;;;;;4938930;29;20207;-65
2022/01/19 06:34:24;;;;;;;6.20;5.60;;;3.80;99.90;;;;;;4947969;29;20684;-64
2022/01/19 06:36:55;;;;;;;6.82;6.30;;;3.70;99.90;;;;;;4932589;29;20617;-64
2022/01/19 06:39:24;;;;;;;7.53;6.63;;;3.70;99.90;;;;;;4953841;23;20254;-63
2022/01/19 06:41:52;;;;;;;6.45;5.90;;;3.70;99.90;;;;;;4952957;28;20227;-63
2022/01/19 06:44:20;;;;;;;6.90;6.28;;;3.60;99.90;;;;;;4954727;29;20219;-63
2022/01/19 06:46:47;;;;;;;7.10;6.20;;;3.70;99.90;;;;;;4955483;29;20199;-63
2022/01/19 06:49:15;;;;;;;5.68;5.28;;;3.60;99.90;;;;;;4953538;29;20669;-62
2022/01/19 06:51:43;;;;;;;5.95;5.45;;;3.60;99.90;;;;;;4955556;29;20290;-63
2022/01/19 06:54:11;;;;;;;7.72;7.13;;;3.70;99.90;;;;;;4955218;29;20640;-63
2022/01/19 06:56:40;;;;;;;7.15;6.60;;;3.70;99.90;;;;;;4955349;29;20239;-63
2022/01/19 06:59:08;;;;;;;9.30;6.78;;;3.70;99.90;;;;;;4954114;29;20302;-64
2022/01/19 07:01:36;;;;;;;7.43;6.70;;;3.70;99.90;;;;;;4955216;28;20294;-63
2022/01/19 07:04:06;;;;;;;7.13;6.18;;;3.80;99.90;;;;;;4954398;29;20584;-65
2022/01/19 07:06:33;;;;;;;22.70;11.32;;;3.90;99.90;;;;;;4954379;29;20294;-66
2022/01/19 07:09:01;;;;;;;17.08;15.40;;;7.30;99.90;;;;;;4955311;29;20223;-65
2022/01/19 07:11:29;;;;;;;13.05;11.75;;;8.90;99.90;;;;;;4953168;29;20362;-63
2022/01/19 07:13:58;;;;;;;8.70;7.53;;;8.50;99.90;;;;;;4951955;29;20740;-63
2022/01/19 07:16:26;;;;;;;6.70;5.78;;;7.90;99.90;;;;;;4952832;29;20752;-63
2022/01/19 07:18:54;;;;;;;5.75;5.22;;;7.20;99.90;;;;;;4953113;29;20385;-64
2022/01/19 07:21:22;;;;;;;5.63;5.05;;;6.70;99.90;;;;;;4953125;29;20309;-63
2022/01/19 07:23:50;;;;;;;7.10;6.50;;;6.20;99.90;;;;;;4952717;29;20235;-63
2022/01/19 07:26:21;;;;;;;6.93;6.00;;;5.80;99.90;;;;;;4952884;29;20270;-62
2022/01/19 07:28:49;;;;;;;5.97;5.47;;;5.40;99.90;;;;;;4951568;28;20223;-64
2022/01/19 07:31:18;;;;;;;6.15;5.65;;;5.10;99.90;;;;;;4949538;29;20295;-63
2022/01/19 07:33:46;;;;;;;4.75;4.45;;;4.80;99.90;;;;;;4953986;28;20229;-64
2022/01/19 07:36:15;;;;;;;5.85;5.28;;;4.60;99.90;;;;;;4954355;29;20250;-63
2022/01/19 07:38:43;;;;;;;6.20;5.70;;;4.40;99.90;;;;;;4954382;29;20282;-63
2022/01/19 07:41:12;;;;;;;8.68;6.55;;;4.30;99.90;;;;;;4954723;29;20565;-63
2022/01/19 07:43:40;;;;;;;6.50;5.90;;;4.30;99.90;;;;;;4954524;28;20306;-63
2022/01/19 07:46:08;;;;;;;6.10;5.60;;;4.20;99.90;;;;;;4954525;29;20250;-62
2022/01/19 07:48:37;;;;;;;7.10;6.47;;;4.20;99.90;;;;;;4954272;29;20277;-64
2022/01/19 07:51:08;;;;;;;5.40;4.90;;;4.20;99.90;;;;;;4954656;29;20270;-63
2022/01/19 07:53:37;;;;;;;6.60;6.10;;;4.30;99.90;;;;;;4954173;28;20603;-63
2022/01/19 07:56:06;;;;;;;5.88;5.38;;;4.40;99.90;;;;;;4954392;28;20326;-62
2022/01/19 07:58:33;;;;;;;6.60;6.00;;;4.50;99.90;;;;;;4954356;29;20263;-63
2022/01/19 08:01:01;;;;;;;6.38;5.80;;;4.60;99.90;;;;;;4954102;29;20296;-63
2022/01/19 08:03:29;;;;;;;6.22;5.63;;;4.70;99.90;;;;;;4953866;29;20212;-63
2022/01/19 08:05:59;;;;;;;5.65;5.15;;;4.90;99.90;;;;;;4954319;29;20237;-63
2022/01/19 08:08:26;;;;;;;6.65;6.05;;;5.10;99.90;;;;;;4953668;29;20659;-63
2022/01/19 08:10:54;;;;;;;9.38;7.25;;;5.30;99.90;;;;;;4954296;29;20250;-63
2022/01/19 08:13:23;;;;;;;11.25;10.05;;;5.40;99.90;;;;;;4953764;29;20695;-63
2022/01/19 08:15:51;;;;;;;13.07;11.02;;;5.50;99.90;;;;;;4953851;29;20212;-63
2022/01/19 08:18:19;;;;;;;12.50;10.07;;;5.70;99.90;;;;;;4953962;29;20250;-63
2022/01/19 08:20:47;;;;;;;9.55;8.65;;;5.90;99.90;;;;;;4953804;29;20245;-63
2022/01/19 08:23:16;;;;;;;9.20;8.25;;;6.00;99.90;;;;;;4953646;29;20295;-63
2022/01/19 08:25:44;;;;;;;9.52;8.50;;;6.20;99.90;;;;;;4953941;29;20235;-63
2022/01/19 08:28:12;;;;;;;8.60;7.72;;;6.10;99.90;;;;;;4953489;29;20231;-64
2022/01/19 08:30:40;;;;;;;8.82;7.65;;;6.20;99.90;;;;;;4953750;29;20217;-63
2022/01/19 08:33:09;;;;;;;9.25;8.45;;;6.30;99.90;;;;;;4953728;29;20230;-63
2022/01/19 08:35:37;;;;;;;8.63;7.53;;;6.40;99.90;;;;;;4953432;29;20334;-63
2022/01/19 08:38:05;;;;;;;10.02;7.95;;;6.40;99.90;;;;;;4953344;29;20302;-63
2022/01/19 08:40:36;;;;;;;7.35;6.65;;;6.60;99.90;;;;;;4953595;29;20310;-64
2022/01/19 08:43:05;;;;;;;7.40;6.80;;;6.80;99.90;;;;;;4953348;29;20314;-63
2022/01/19 08:45:35;;;;;;;9.23;7.32;;;6.90;99.90;;;;;;4952923;28;20204;-63
2022/01/19 08:48:04;;;;;;;8.23;7.43;;;6.70;99.90;;;;;;4953244;29;20250;-64
2022/01/19 08:50:32;;;;;;;9.23;8.43;;;6.40;99.90;;;;;;4953524;29;20237;-63
2022/01/19 08:53:00;;;;;;;9.80;8.75;;;6.40;99.90;;;;;;4953317;29;20254;-64
2022/01/19 08:55:28;;;;;;;10.60;9.52;;;6.20;99.90;;;;;;4946995;29;20289;-64
2022/01/19 08:57:57;;;;;;;9.75;8.90;;;6.40;99.90;;;;;;4947090;29;20676;-64
2022/01/19 09:00:26;;;;;;;10.80;9.40;;;6.50;99.90;;;;;;4953404;29;20223;-64
2022/01/19 09:02:54;;;;;;;9.40;8.50;;;6.60;99.90;;;;;;4953098;29;20211;-64
2022/01/19 09:05:21;;;;;;;10.27;9.27;;;6.50;99.90;;;;;;4953264;29;20665;-64
2022/01/19 09:07:50;;;;;;;13.23;10.65;;;6.40;99.90;;;;;;4952667;29;20195;-61
2022/01/19 09:10:18;;;;;;;13.60;10.30;;;6.30;99.90;;;;;;4953095;29;20223;-63
2022/01/19 09:12:46;;;;;;;13.07;11.05;;;6.20;99.90;;;;;;4952946;29;20660;-63
2022/01/19 09:15:18;;;;;;;11.65;10.55;;;6.10;99.90;;;;;;4953321;29;20246;-63
2022/01/19 09:17:46;;;;;;;11.05;10.00;;;6.10;99.90;;;;;;4952880;29;20622;-63
2022/01/19 09:20:17;;;;;;;12.73;10.40;;;5.90;99.90;;;;;;4952927;29;20297;-63
2022/01/19 09:22:45;;;;;;;11.95;10.32;;;6.00;99.90;;;;;;4952925;29;20294;-63
2022/01/19 09:25:14;;;;;;;15.13;11.55;;;5.80;99.90;;;;;;4952980;29;20203;-63
2022/01/19 09:27:43;;;;;;;12.75;10.23;;;5.60;99.90;;;;;;4952962;29;20215;-63
2022/01/19 09:30:15;;;;;;;13.32;11.25;;;5.60;99.90;;;;;;4952758;29;20215;-63
2022/01/19 09:32:54;;;;;;;12.50;11.27;;;5.50;99.90;;;;;;4952711;29;20249;-63
2022/01/19 09:35:25;;;;;;;13.05;11.70;;;5.50;99.90;;;;;;4952953;29;20269;-63
2022/01/19 09:37:53;;;;;;;15.40;11.85;;;5.60;99.90;;;;;;4952984;29;20234;-63
2022/01/19 09:40:29;;;;;;;13.40;12.00;;;5.70;99.90;;;;;;4952763;29;20293;-64
2022/01/19 09:43:07;;;;;;;12.93;11.63;;;5.90;99.90;;;;;;4952808;29;20211;-64
2022/01/19 09:45:35;;;;;;;14.27;11.40;;;5.90;99.90;;;;;;4952855;29;20318;-63
2022/01/19 09:48:05;;;;;;;15.95;12.10;;;6.00;99.90;;;;;;4952460;29;20207;-63
2022/01/19 09:50:34;;;;;;;12.52;11.43;;;5.80;99.90;;;;;;4952981;29;20234;-63
2022/01/19 09:53:04;;;;;;;14.32;11.75;;;5.50;99.90;;;;;;4952478;29;20211;-63
2022/01/19 09:55:33;;;;;;;13.85;12.55;;;5.50;99.90;;;;;;4953686;28;20637;-63
2022/01/19 09:58:00;;;;;;;13.07;11.63;;;5.50;99.90;;;;;;4956130;29;20235;-64
2022/01/19 10:00:28;;;;;;;14.07;12.60;;;5.30;99.90;;;;;;4956394;29;20643;-64
2022/01/19 10:03:15;;;;;;;14.23;12.77;;;5.00;99.90;;;;;;4956488;29;20294;-62
2022/01/19 10:05:59;;;;;;;15.38;13.60;;;4.90;99.90;;;;;;4956462;29;20199;-63
2022/01/19 10:08:32;;;;;;;14.23;12.93;;;4.70;99.90;;;;;;4950137;29;20314;-63
2022/01/19 10:11:12;;;;;;;15.35;13.90;;;4.60;99.90;;;;;;4951317;29;20295;-64
2022/01/19 10:19:19;;;;;;;15.32;13.80;;;5.30;99.90;;;;;;4956148;29;20258;-64
2022/01/19 10:21:58;;;;;;;17.90;14.70;;;5.20;99.90;;;;;;4956192;29;20262;-64
2022/01/19 10:24:34;;;;;;;20.13;17.00;;;5.10;99.90;;;;;;4956160;29;20294;-64
2022/01/19 10:27:25;;;;;;;16.83;15.05;;;4.90;99.90;;;;;;4955803;29;20233;-65
2022/01/19 10:29:57;;;;;;;17.42;15.32;;;4.70;99.90;;;;;;4955720;29;20231;-64
2022/01/19 10:32:26;;;;;;;17.20;15.45;;;4.50;99.90;;;;;;4955642;29;20249;-64
2022/01/19 10:34:58;;;;;;;17.30;15.70;;;4.30;99.90;;;;;;4955773;29;20216;-64
2022/01/19 10:37:27;;;;;;;18.58;16.08;;;4.20;99.90;;;;;;4955253;29;20247;-65
2022/01/19 10:40:00;;;;;;;16.50;14.80;;;4.10;99.90;;;;;;4955251;29;20322;-63
2022/01/19 10:42:31;;;;;;;18.30;16.48;;;4.10;99.90;;;;;;4955507;29;20751;-64
2022/01/19 10:45:01;;;;;;;21.55;18.70;;;4.10;99.90;;;;;;4955880;29;20241;-64
2022/01/19 10:47:40;;;;;;;19.17;17.27;;;4.10;99.90;;;;;;4955537;29;20254;-63
2022/01/19 10:50:11;;;;;;;19.13;16.92;;;4.00;99.90;;;;;;4955862;29;20335;-65
2022/01/19 10:52:41;;;;;;;17.00;15.40;;;4.00;99.90;;;;;;4955444;29;20211;-64
2022/01/19 10:55:13;;;;;;;18.52;16.73;;;4.00;99.90;;;;;;4949447;29;20301;-64
2022/01/19 10:57:42;;;;;;;18.30;16.60;;;4.10;99.90;;;;;;4955357;29;20788;-64
2022/01/19 11:00:12;;;;;;;18.17;16.35;;;4.10;99.90;;;;;;4955183;29;20317;-64
2022/01/19 11:02:41;;;;;;;17.52;15.88;;;4.10;99.90;;;;;;4955021;29;20344;-63
2022/01/19 11:05:11;;;;;;;18.48;16.88;;;4.00;99.90;;;;;;4955372;29;20207;-65
2022/01/19 11:07:39;;;;;;;17.95;16.33;;;4.00;99.90;;;;;;4954579;28;20239;-64
2022/01/19 11:10:12;;;;;;;16.73;15.13;;;3.90;99.90;;;;;;4955283;29;20265;-65
2022/01/19 11:12:45;;;;;;;17.55;15.85;;;4.00;99.90;;;;;;4955173;29;20632;-64
2022/01/19 11:15:15;;;;;;;18.42;16.25;;;4.00;99.90;;;;;;4955255;29;20300;-64
2022/01/19 11:17:43;;;;;;;16.35;14.85;;;4.10;99.90;;;;;;4954999;29;20301;-64
2022/01/19 11:20:15;;;;;;;17.38;15.57;;;4.10;99.90;;;;;;4954882;28;20744;-64
2022/01/19 11:23:06;;;;;;;18.58;15.00;;;4.10;99.90;;;;;;4954717;29;20207;-64
2022/01/19 11:25:46;;;;;;;17.42;15.80;;;4.00;99.90;;;;;;4949487;29;20290;-65
2022/01/19 11:28:25;;;;;;;18.08;15.40;;;4.00;99.90;;;;;;4954910;29;20207;-64
2022/01/19 11:30:54;;;;;;;17.15;15.52;;;4.00;99.90;;;;;;4954645;29;20199;-64
2022/01/19 11:33:25;;;;;;;17.75;15.85;;;3.90;99.90;;;;;;4954239;29;20203;-63
2022/01/19 11:35:57;;;;;;;19.45;17.55;;;3.90;99.90;;;;;;4954749;29;20258;-64
2022/01/19 11:38:31;;;;;;;17.10;15.48;;;3.90;99.90;;;;;;4954837;29;20251;-63
2022/01/19 11:41:02;;;;;;;19.45;17.42;;;3.90;99.90;;;;;;4954670;29;20632;-63
2022/01/19 11:43:31;;;;;;;20.90;18.85;;;3.80;99.90;;;;;;4948117;29;20199;-63
2022/01/19 11:46:03;;;;;;;20.85;18.60;;;3.80;99.90;;;;;;4948505;29;20668;-63
2022/01/19 11:48:35;;;;;;;21.42;19.10;;;3.70;99.90;;;;;;4948948;29;20252;-62
2022/01/19 11:51:26;;;;;;;21.15;18.48;;;3.70;99.90;;;;;;4954557;29;20296;-64
2022/01/19 11:54:04;;;;;;;22.10;19.52;;;3.70;99.90;;;;;;4954207;29;20231;-64
2022/01/19 11:56:33;;;;;;;22.40;20.25;;;3.70;99.90;;;;;;4954420;29;20232;-64
2022/01/19 11:59:08;;;;;;;25.40;22.80;;;3.70;99.90;;;;;;4954025;29;20227;-64
2022/01/19 12:01:37;;;;;;;26.95;24.02;;;3.80;99.90;;;;;;4950561;29;20235;-64
2022/01/19 12:04:17;;;;;;;28.92;25.88;;;3.80;99.90;;;;;;4953736;29;20294;-64
2022/01/19 12:06:47;;;;;;;30.42;25.25;;;3.70;99.90;;;;;;4954251;29;20209;-64
2022/01/19 12:09:17;;;;;;;31.05;27.63;;;3.60;99.90;;;;;;4953826;29;20223;-64
2022/01/19 12:11:50;;;;;;;31.48;27.98;;;3.60;99.90;;;;;;4954164;29;20246;-63
2022/01/19 12:14:22;;;;;;;31.83;28.63;;;3.60;99.90;;;;;;4953989;29;20630;-64
2022/01/19 12:17:00;;;;;;;30.63;27.55;;;3.50;99.90;;;;;;4954067;29;20262;-63
2022/01/19 12:19:30;;;;;;;31.85;28.85;;;3.40;99.90;;;;;;4952969;28;20259;-64
2022/01/19 12:22:08;;;;;;;32.55;29.42;;;3.40;99.90;;;;;;4954012;29;20231;-64
2022/01/19 12:24:44;;;;;;;30.27;27.38;;;3.40;99.90;;;;;;4953931;29;20707;-63
2022/01/19 12:27:26;;;;;;;31.92;28.70;;;3.40;99.90;;;;;;4953562;29;20227;-64
2022/01/19 12:30:09;;;;;;;32.13;28.90;;;3.50;99.90;;;;;;4953375;29;20343;-64
2022/01/19 12:32:44;;;;;;;32.85;28.27;;;3.50;99.90;;;;;;4953662;29;20211;-64
2022/01/19 12:35:21;;;;;;;32.72;29.50;;;3.40;99.90;;;;;;4947840;29;20218;-63
2022/01/19 12:37:52;;;;;;;33.42;29.83;;;3.40;99.90;;;;;;4953596;29;20234;-63
2022/01/19 12:40:44;;;;;;;34.50;30.65;;;3.30;99.90;;;;;;4978056;23;20270;-75
2022/01/19 12:43:32;;;;;;;35.33;31.75;;;3.30;99.90;;;;;;4952386;28;20204;-75
2022/01/19 12:46:01;;;;;;;33.90;30.33;;;3.20;99.90;;;;;;4954366;28;20207;-75
2022/01/19 12:48:35;;;;;;;36.17;32.35;;;3.30;99.90;;;;;;4954043;28;20305;-75
2022/01/19 12:51:03;;;;;;;34.95;31.38;;;3.30;99.90;;;;;;4953992;28;20234;-75
2022/01/19 12:53:32;;;;;;;38.67;34.67;;;3.30;99.90;;;;;;4953540;28;20622;-75
2022/01/19 12:56:07;;;;;;;35.60;31.90;;;3.40;99.90;;;;;;4953827;29;20249;-75
2022/01/19 12:58:36;;;;;;;34.70;30.85;;;3.30;99.90;;;;;;4951624;29;20226;-73
2022/01/19 13:01:07;;;;;;;31.70;28.50;;;3.30;99.90;;;;;;4944719;29;20290;-74
2022/01/19 13:03:40;;;;;;;31.98;28.58;;;3.30;99.90;;;;;;4951594;28;20665;-73
2022/01/19 13:06:14;;;;;;;33.42;29.83;;;3.30;99.90;;;;;;4953684;28;20633;-74
2022/01/19 13:08:51;;;;;;;31.27;27.67;;;3.30;99.90;;;;;;4954031;28;20222;-74
2022/01/19 13:11:26;;;;;;;29.35;26.55;;;3.30;99.90;;;;;;4943202;29;20215;-74
2022/01/19 13:13:58;;;;;;;28.35;25.45;;;3.20;99.90;;;;;;4954565;29;20678;-74
2022/01/19 13:16:42;;;;;;;29.67;25.80;;;3.20;99.90;;;;;;4953480;29;20215;-74
2022/01/19 13:19:13;;;;;;;26.95;24.15;;;3.30;99.90;;;;;;4951572;29;20298;-74
2022/01/19 13:21:44;;;;;;;27.13;23.67;;;3.30;99.90;;;;;;4953447;29;20231;-74
2022/01/19 13:24:17;;;;;;;23.70;21.40;;;3.30;99.90;;;;;;4953414;29;20254;-74
2022/01/19 13:26:51;;;;;;;25.67;22.98;;;3.30;99.90;;;;;;4953643;29;20203;-74
2022/01/19 13:29:23;;;;;;;26.80;23.95;;;3.30;99.90;;;;;;4943231;29;20214;-74
2022/01/19 13:31:57;;;;;;;22.17;20.08;;;3.20;99.90;;;;;;4950296;28;20290;-74
2022/01/19 13:34:27;;;;;;;28.30;23.98;;;3.30;99.90;;;;;;4942273;29;20206;-75
2022/01/19 13:36:59;;;;;;;23.38;21.05;;;3.30;99.90;;;;;;4949851;29;20214;-75
2022/01/19 13:39:33;;;;;;;22.30;20.10;;;3.30;99.90;;;;;;4950732;29;20274;-75
2022/01/19 13:42:03;;;;;;;23.52;21.27;;;3.30;99.90;;;;;;4957060;28;20317;-75
2022/01/19 13:44:38;;;;;;;21.90;19.73;;;3.30;99.90;;;;;;4957296;28;20204;-76
2022/01/19 13:47:11;;;;;;;23.77;21.48;;;3.20;99.90;;;;;;4957078;28;20238;-75
2022/01/19 13:49:41;;;;;;;24.27;21.65;;;3.20;99.90;;;;;;4945637;29;20731;-76
2022/01/19 13:52:10;;;;;;;24.83;22.33;;;3.20;99.90;;;;;;4956888;29;20223;-75
2022/01/19 13:54:41;;;;;;;25.45;23.15;;;3.10;99.90;;;;;;4956699;29;20195;-76
2022/01/19 13:57:09;;;;;;;25.70;23.13;;;3.20;99.90;;;;;;4956993;29;20204;-75
2022/01/19 13:59:37;;;;;;;22.55;20.38;;;3.10;99.90;;;;;;4956602;29;20266;-74
2022/01/19 14:02:14;;;;;;;25.25;22.75;;;3.10;99.90;;;;;;4956985;29;20239;-75
2022/01/19 14:04:53;;;;;;;25.55;23.05;;;3.00;99.90;;;;;;4948409;29;20301;-73
2022/01/19 14:07:21;;;;;;;26.65;23.80;;;3.00;99.90;;;;;;4951936;29;20258;-75
2022/01/19 14:09:50;;;;;;;27.55;24.67;;;2.90;99.90;;;;;;4956476;29;20636;-75
2022/01/19 14:12:19;;;;;;;25.33;22.83;;;2.90;99.90;;;;;;4956247;29;20243;-74
2022/01/19 14:14:56;;;;;;;28.02;25.40;;;2.90;99.90;;;;;;4956649;29;20200;-76
2022/01/19 14:17:27;;;;;;;28.27;25.20;;;2.90;99.90;;;;;;4956330;29;20207;-74
2022/01/19 14:19:56;;;;;;;27.70;24.85;;;2.90;99.90;;;;;;4943735;28;20758;-74